createdAt,value
2018-11-20T00:08:13.623Z,4.50
2018-11-20T00:11:01.163Z,4.75
2018-11-20T00:14:07.965Z,4.97
2018-11-20T00:20:13.963Z,4.75
2018-11-20T00:22:53.508Z,3.75
2018-11-20T00:26:00.341Z,5.45
2018-11-20T00:29:25.319Z,5.47
2018-11-20T00:35:34.188Z,5.17
2018-11-20T00:38:41.380Z,4.70
2018-11-20T00:41:48.190Z,6.07
2018-11-20T00:48:10.183Z,5.43
2018-11-20T00:53:50.405Z,5.35
2018-11-20T01:00:12.317Z,5.70
2018-11-20T01:03:28.210Z,6.55
2018-11-20T01:06:35.031Z,5.97
2018-11-20T01:09:41.856Z,4.28
2018-11-20T01:16:06.782Z,6.50
2018-11-20T01:19:13.653Z,7.92
2018-11-20T01:22:20.878Z,6.53
2018-11-20T01:28:23.141Z,6.60
2018-11-20T01:31:29.996Z,6.85
2018-11-20T01:34:36.816Z,5.95
2018-11-20T01:37:43.627Z,6.60
2018-11-20T01:40:39.899Z,6.67
2018-11-20T01:43:36.866Z,7.15
2018-11-20T01:46:45.108Z,8.23
2018-11-20T01:49:51.984Z,7.70
2018-11-20T01:52:52.000Z,8.67
2018-11-20T01:55:59.112Z,9.08
2018-11-20T01:59:08.635Z,9.90
2018-11-20T02:02:15.462Z,9.40
2018-11-20T02:08:14.076Z,10.13
2018-11-20T02:11:40.336Z,13.53
2018-11-20T02:14:47.588Z,12.07
2018-11-20T02:17:56.298Z,14.97
2018-11-20T02:20:55.671Z,15.65
2018-11-20T02:24:02.481Z,16.50
2018-11-20T02:27:09.473Z,12.98
2018-11-20T02:30:16.324Z,14.58
2018-11-20T02:36:18.545Z,13.23
2018-11-20T02:42:16.150Z,17.50
2018-11-20T02:45:31.980Z,15.48
2018-11-20T02:48:38.920Z,15.80
2018-11-20T02:51:45.740Z,17.50
2018-11-20T02:54:52.691Z,17.82
2018-11-20T02:57:59.499Z,17.05
2018-11-20T03:04:21.930Z,20.12
2018-11-20T03:10:17.546Z,19.55
2018-11-20T03:13:33.448Z,17.98
2018-11-20T03:16:40.281Z,17.73
2018-11-20T03:19:47.090Z,18.45
2018-11-20T03:22:54.036Z,17.57
2018-11-20T03:26:03.982Z,16.02
2018-11-20T03:32:25.396Z,14.13
2018-11-20T03:38:21.023Z,18.20
2018-11-20T03:50:28.695Z,14.25
2018-11-20T03:53:06.661Z,16.57
2018-11-20T03:59:26.732Z,15.68
2018-11-20T04:02:13.958Z,20.82
2018-11-20T04:08:16.602Z,14.83
2018-11-20T04:11:11.268Z,16.20
2018-11-20T04:17:18.510Z,15.33
2018-11-20T04:23:17.983Z,15.77
2018-11-20T04:32:23.194Z,15.20
2018-11-20T04:35:39.021Z,14.80
2018-11-20T04:38:45.827Z,14.65
2018-11-20T04:41:40.369Z,16.03
2018-11-20T04:44:43.260Z,13.05
2018-11-20T04:47:50.348Z,15.67
2018-11-20T04:50:57.268Z,15.35
2018-11-20T04:54:04.094Z,15.03
2018-11-20T05:00:26.261Z,12.25
2018-11-20T05:06:32.555Z,15.57
2018-11-20T05:12:29.134Z,13.77
2018-11-20T05:21:55.926Z,13.03
2018-11-20T05:25:02.754Z,12.03
2018-11-20T05:28:09.759Z,14.67
2018-11-20T05:30:57.357Z,15.15
2018-11-20T05:34:04.154Z,15.13
2018-11-20T05:36:58.366Z,12.97
2018-11-20T05:40:05.442Z,13.62
2018-11-20T05:43:19.617Z,14.30
2018-11-20T05:46:26.442Z,13.27
2018-11-20T05:49:52.651Z,14.50
2018-11-20T05:52:48.770Z,12.57
2018-11-20T05:55:46.829Z,14.47
2018-11-20T05:58:53.634Z,14.38
2018-11-20T06:02:00.449Z,15.28
2018-11-20T06:05:07.317Z,14.60
2018-11-20T06:08:14.096Z,14.20
2018-11-20T06:11:22.890Z,14.63
2018-11-20T06:14:29.716Z,15.50
2018-11-20T06:20:31.348Z,17.35
2018-11-20T06:26:29.990Z,18.20
2018-11-20T06:29:40.133Z,14.35
2018-11-20T06:32:46.945Z,17.10
2018-11-20T06:35:44.460Z,14.55
2018-11-20T06:38:51.262Z,14.93
2018-11-20T06:41:58.138Z,15.78
2018-11-20T06:45:05.354Z,13.38
2018-11-20T06:48:12.252Z,12.73
2018-11-20T06:54:35.485Z,15.55
2018-11-20T07:00:35.165Z,17.05
2018-11-20T07:06:32.727Z,14.03
2018-11-20T07:09:47.084Z,12.95
2018-11-20T07:12:53.914Z,14.20
2018-11-20T07:16:01.055Z,20.02
2018-11-20T07:22:23.434Z,15.23
2018-11-20T07:25:47.990Z,17.27
2018-11-20T07:28:44.515Z,15.13
2018-11-20T07:31:51.455Z,17.63
2018-11-20T07:34:58.268Z,14.70
2018-11-20T07:38:05.032Z,14.83
2018-11-20T07:44:38.587Z,18.23
2018-11-20T07:50:46.724Z,15.93
2018-11-20T07:53:45.350Z,17.15
2018-11-20T07:56:52.187Z,16.90
2018-11-20T07:59:59.022Z,14.53
2018-11-20T08:03:18.962Z,15.03
2018-11-20T08:06:01.652Z,14.33
2018-11-20T08:08:56.194Z,16.15
2018-11-20T08:12:03.007Z,20.20
2018-11-20T08:18:35.925Z,17.80
2018-11-20T08:24:32.709Z,20.48
2018-11-20T08:30:34.381Z,20.92
2018-11-20T08:36:32.972Z,16.13
2018-11-20T08:39:50.709Z,14.25
2018-11-20T08:42:57.546Z,18.53
2018-11-20T08:46:04.361Z,16.05
2018-11-20T08:49:25.518Z,18.65
2018-11-20T08:52:18.009Z,19.07
2018-11-20T08:55:16.962Z,19.40
2018-11-20T08:58:13.418Z,19.37
2018-11-20T09:01:30.771Z,15.40
2018-11-20T09:04:37.889Z,17.75
2018-11-20T09:10:35.029Z,19.48
2018-11-20T09:13:50.603Z,23.12
2018-11-20T09:16:57.442Z,14.93
2018-11-20T09:20:04.334Z,16.25
2018-11-20T09:23:11.090Z,17.75
2018-11-20T09:26:17.891Z,18.90
2018-11-20T09:32:43.908Z,16.77
2018-11-20T09:38:39.511Z,18.12
2018-11-20T09:44:43.417Z,16.42
2018-11-20T09:48:09.638Z,16.00
2018-11-20T09:54:40.390Z,19.57
2018-11-20T10:00:38.249Z,15.20
2018-11-20T10:04:02.804Z,20.70
2018-11-20T10:07:09.747Z,18.27
2018-11-20T10:10:16.572Z,21.17
2018-11-20T10:13:32.320Z,18.73
2018-11-20T10:16:39.139Z,17.77
2018-11-20T10:20:05.428Z,18.23
2018-11-20T10:23:12.255Z,16.95
2018-11-20T10:26:19.065Z,19.37
2018-11-20T10:29:45.444Z,21.33
2018-11-20T10:32:52.244Z,18.10
2018-11-20T10:35:59.064Z,18.92
2018-11-20T10:39:05.925Z,17.57
2018-11-20T10:42:12.734Z,18.60
2018-11-20T10:45:19.723Z,18.87
2018-11-20T10:48:26.560Z,16.87
2018-11-20T10:54:41.560Z,15.93
2018-11-20T10:57:43.517Z,18.23
2018-11-20T11:00:43.479Z,17.32
2018-11-20T11:03:46.636Z,18.82
2018-11-20T11:09:21.659Z,16.42
2018-11-20T11:12:16.417Z,27.98
2018-11-20T11:15:16.389Z,17.37
2018-11-20T11:18:19.023Z,22.87
2018-11-20T11:21:19.103Z,19.30
2018-11-20T11:24:25.572Z,18.45
2018-11-20T11:27:31.411Z,16.00
2018-11-20T11:33:17.729Z,13.70
2018-11-20T11:35:59.598Z,15.37
2018-11-20T11:38:41.967Z,13.80
2018-11-20T11:44:21.644Z,13.78
2018-11-20T11:47:21.584Z,14.27
2018-11-20T11:52:44.586Z,17.93
2018-11-20T11:55:46.942Z,16.07
2018-11-20T12:04:11.414Z,16.15
2018-11-20T12:15:28.932Z,16.12
2018-11-20T12:18:33.504Z,14.83
2018-11-20T12:21:40.387Z,14.83
2018-11-20T12:24:30.150Z,17.80
2018-11-20T12:27:38.187Z,15.10
2018-11-20T12:30:43.968Z,21.55
2018-11-20T12:33:50.808Z,14.80
2018-11-20T12:36:48.803Z,17.80
2018-11-20T12:40:02.852Z,20.02
2018-11-20T12:43:09.729Z,17.65
2018-11-20T12:46:16.553Z,14.20
2018-11-20T12:49:23.902Z,15.70
2018-11-20T12:52:30.739Z,15.73
2018-11-20T12:55:28.583Z,14.87
2018-11-20T12:58:35.369Z,16.37
2018-11-20T13:04:58.528Z,18.57
2018-11-20T13:10:58.421Z,17.12
2018-11-20T13:16:54.042Z,16.53
2018-11-20T13:22:44.528Z,20.70
2018-11-20T13:25:53.112Z,16.25
2018-11-20T13:28:59.939Z,20.72
2018-11-20T13:34:59.719Z,21.97
2018-11-20T13:41:18.614Z,19.07
2018-11-20T13:44:25.415Z,18.57
2018-11-20T13:50:58.911Z,22.52
2018-11-20T13:54:14.932Z,21.02
2018-11-20T13:57:21.737Z,16.30
2018-11-20T14:00:28.561Z,20.00
2018-11-20T14:03:35.451Z,20.88
2018-11-20T14:06:42.295Z,20.77
2018-11-20T14:12:58.767Z,14.93
2018-11-20T14:16:25.011Z,17.93
2018-11-20T14:22:57.905Z,20.75
2018-11-20T14:28:59.241Z,17.30
2018-11-20T14:35:05.338Z,19.65
2018-11-20T14:41:04.510Z,16.40
2018-11-20T14:46:57.517Z,16.90
2018-11-20T14:50:07.392Z,16.75
2018-11-20T14:59:09.959Z,16.12
2018-11-20T15:01:59.217Z,15.93
2018-11-20T15:05:06.384Z,15.72
2018-11-20T15:11:08.517Z,14.68
2018-11-20T15:17:10.185Z,13.43
2018-11-20T15:20:17.017Z,13.03
2018-11-20T15:23:23.977Z,11.60
2018-11-20T15:26:30.818Z,11.30
2018-11-20T15:33:03.752Z,8.97
2018-11-20T15:39:05.308Z,8.10
2018-11-20T15:45:11.498Z,7.28
2018-11-20T15:51:01.204Z,8.80
2018-11-20T15:54:17.096Z,8.05
2018-11-20T15:57:27.468Z,6.37
2018-11-20T16:04:02.261Z,5.80
2018-11-20T16:07:01.715Z,6.60
2018-11-20T16:10:04.183Z,5.75
2018-11-20T16:13:00.443Z,5.55
2018-11-20T16:19:09.027Z,5.58
2018-11-20T16:24:55.251Z,6.60
2018-11-20T16:37:37.311Z,8.90
2018-11-20T16:40:44.107Z,7.08
2018-11-20T16:47:13.633Z,7.53
2018-11-20T16:59:08.797Z,7.80
2018-11-20T17:02:15.624Z,7.87
2018-11-20T17:05:22.425Z,8.28
2018-11-20T17:08:14.263Z,8.30
2018-11-20T17:11:17.419Z,7.65
2018-11-20T17:17:19.834Z,7.97
2018-11-20T17:20:15.102Z,7.83
2018-11-20T17:23:21.963Z,10.05
2018-11-20T17:26:09.520Z,8.17
2018-11-20T17:29:16.603Z,10.40
2018-11-20T17:35:12.194Z,9.40
2018-11-20T17:38:28.223Z,8.68
2018-11-20T17:41:18.147Z,6.33
2018-11-20T17:47:17.103Z,8.70
2018-11-20T17:53:19.961Z,9.43
2018-11-20T17:59:15.821Z,8.53
2018-11-20T18:05:17.692Z,10.88
2018-11-20T18:11:14.786Z,11.30
2018-11-20T18:20:10.382Z,9.98
2018-11-20T18:23:23.304Z,10.88
2018-11-20T18:26:12.512Z,11.27
2018-11-20T18:29:19.879Z,9.40
2018-11-20T18:32:26.985Z,11.15
2018-11-20T18:35:33.799Z,13.48
2018-11-20T18:38:40.632Z,12.88
2018-11-20T18:41:47.495Z,11.85
2018-11-20T18:44:54.315Z,14.78
2018-11-20T18:51:16.651Z,12.43
2018-11-20T18:54:32.726Z,13.60
2018-11-20T18:57:39.529Z,13.23
2018-11-20T19:00:46.653Z,13.13
2018-11-20T19:03:59.977Z,13.00
2018-11-20T19:07:05.570Z,12.20
2018-11-20T19:10:20.066Z,11.55
2018-11-20T19:13:26.920Z,15.15
2018-11-20T19:19:23.674Z,13.05
2018-11-20T19:22:30.468Z,11.43
2018-11-20T19:25:37.309Z,10.50
2018-11-20T19:28:44.119Z,11.33
2018-11-20T19:31:53.244Z,10.47
2018-11-20T19:34:57.833Z,11.08
2018-11-20T19:38:04.648Z,12.97
2018-11-20T19:41:11.535Z,12.75
2018-11-20T19:44:18.376Z,13.53
2018-11-20T19:47:25.214Z,11.73
2018-11-20T19:50:32.067Z,13.30
2018-11-20T19:53:38.904Z,14.53
2018-11-20T19:56:45.698Z,14.07
2018-11-20T19:59:52.713Z,13.85
2018-11-20T20:02:59.513Z,13.38
2018-11-20T20:06:06.353Z,12.15
2018-11-20T20:09:07.956Z,11.85
2018-11-20T20:12:14.801Z,13.80
2018-11-20T20:15:21.628Z,12.78
2018-11-20T20:18:28.822Z,13.88
2018-11-20T20:21:35.658Z,11.70
2018-11-20T20:24:42.529Z,12.03
2018-11-20T20:27:49.343Z,13.77
2018-11-20T20:30:56.280Z,13.90
2018-11-20T20:34:03.144Z,14.45
2018-11-20T20:37:10.036Z,13.30
2018-11-20T20:40:16.861Z,13.88
2018-11-20T20:43:23.798Z,13.10
2018-11-20T20:46:30.638Z,12.70
2018-11-20T20:49:37.534Z,14.55
2018-11-20T20:52:44.439Z,15.40
2018-11-20T20:55:51.268Z,15.00
2018-11-20T20:58:58.103Z,12.03
2018-11-20T21:02:04.995Z,12.30
2018-11-20T21:05:11.864Z,11.22
2018-11-20T21:08:18.669Z,14.53
2018-11-20T21:11:25.577Z,14.40
2018-11-20T21:14:32.433Z,14.40
2018-11-20T21:17:39.251Z,13.63
2018-11-20T21:20:46.126Z,14.30
2018-11-20T21:23:52.905Z,14.07
2018-11-20T21:26:59.716Z,12.00
2018-11-20T21:30:06.550Z,13.53
2018-11-20T21:33:13.699Z,13.13
2018-11-20T21:36:20.509Z,13.53
2018-11-20T21:39:27.806Z,14.47
2018-11-20T21:42:34.628Z,13.60
2018-11-20T21:45:41.502Z,13.25
2018-11-20T21:48:48.309Z,13.62
2018-11-20T21:51:55.154Z,13.53
2018-11-20T21:55:01.972Z,13.58
2018-11-20T21:58:08.793Z,14.80
2018-11-20T22:01:16.647Z,15.40
2018-11-20T22:04:26.505Z,15.35
2018-11-20T22:07:33.390Z,14.20
2018-11-20T22:10:40.227Z,13.48
2018-11-20T22:13:48.703Z,12.45
2018-11-20T22:16:58.930Z,14.38
2018-11-20T22:20:05.734Z,12.60
2018-11-20T22:23:11.581Z,15.88
2018-11-20T22:26:18.434Z,12.82
2018-11-20T22:29:25.604Z,13.55
2018-11-20T22:32:32.697Z,13.50
2018-11-20T22:35:40.501Z,10.98
2018-11-20T22:38:40.981Z,12.43
2018-11-20T22:41:47.835Z,11.53
2018-11-20T22:47:47.443Z,14.60
2018-11-20T22:50:34.983Z,10.13
2018-11-20T22:53:41.807Z,12.50
2018-11-20T22:56:31.703Z,10.80
2018-11-20T22:59:38.658Z,11.05
2018-11-20T23:02:45.490Z,12.13
2018-11-20T23:05:45.196Z,12.80
2018-11-20T23:08:25.633Z,13.65
2018-11-20T23:11:06.551Z,10.08
2018-11-20T23:13:47.416Z,10.75
2018-11-20T23:16:28.166Z,12.17
2018-11-20T23:19:08.562Z,13.35
2018-11-20T23:21:49.333Z,12.37
2018-11-20T23:26:51.301Z,14.28
2018-11-20T23:29:32.150Z,10.68
2018-11-20T23:32:12.396Z,11.43
2018-11-20T23:34:52.825Z,12.40
2018-11-20T23:37:33.557Z,13.98
2018-11-20T23:40:14.368Z,14.35
2018-11-20T23:42:55.017Z,12.35
2018-11-20T23:45:35.899Z,12.10
2018-11-20T23:48:16.476Z,14.15
2018-11-20T23:50:57.524Z,10.63
2018-11-20T23:53:38.228Z,10.72
2018-11-20T23:56:18.674Z,11.07
2018-11-20T23:58:59.167Z,11.65
